Time;durP1;ratioP1;P1;durP2;ratioP2;P2;SDS_P1;SDS_P2;PMS_P1;PMS_P2;Temp;Humidity;BMP_temperature;BMP_pressure;BME280_temperature;BME280_humidity;BME280_pressure;Samples;Min_cycle;Max_cycle;Signal;HPM_P1;HPM_P2
2021/12/10 00:01:17;;;;;;;4.80;4.40;;;;;;;3.62;83.15;99533.22;5097407;28;20223;-75
2021/12/10 00:03:47;;;;;;;7.27;4.33;;;;;;;3.69;83.08;99514.28;5112204;28;20556;-74
2021/12/10 00:06:17;;;;;;;5.30;4.40;;;;;;;3.74;83.03;99515.09;5112197;28;20217;-75
2021/12/10 00:08:50;;;;;;;5.07;4.57;;;;;;;3.79;82.83;99517.66;5107752;28;20325;-75
2021/12/10 00:11:20;;;;;;;4.83;4.33;;;;;;;3.79;82.45;99525.41;5111329;28;20697;-75
2021/12/10 00:13:47;;;;;;;5.07;4.67;;;;;;;3.87;82.19;99540.84;5094240;28;20200;-75
2021/12/10 00:16:15;;;;;;;5.97;4.50;;;;;;;3.73;81.25;99572.75;5092107;28;20633;-75
2021/12/10 00:18:49;;;;;;;5.80;5.20;;;;;;;3.82;81.42;99568.41;5100552;28;20756;-75
2021/12/10 00:21:15;;;;;;;5.57;4.63;;;;;;;3.83;82.20;99557.22;5103534;28;20226;-75
2021/12/10 00:23:46;;;;;;;8.80;4.83;;;;;;;3.83;81.76;99552.06;5095196;28;20201;-76
2021/12/10 00:26:14;;;;;;;6.57;4.97;;;;;;;3.83;81.73;99550.34;5102770;28;20220;-75
2021/12/10 00:28:41;;;;;;;4.90;4.50;;;;;;;3.87;81.44;99549.44;5110151;28;20193;-75
2021/12/10 00:31:18;;;;;;;5.10;4.60;;;;;;;3.90;81.16;99554.56;5108332;28;20314;-75
2021/12/10 00:33:48;;;;;;;5.27;4.43;;;;;;;3.77;80.59;99560.69;5108319;28;20191;-75
2021/12/10 00:36:15;;;;;;;5.50;5.03;;;;;;;3.86;81.07;99567.50;5091696;28;20634;-75
2021/12/10 00:38:42;;;;;;;6.10;4.97;;;;;;;3.84;81.52;99546.88;5100239;28;20277;-74
2021/12/10 00:41:09;;;;;;;5.07;4.73;;;;;;;3.83;81.96;99531.41;5093516;28;20211;-75
2021/12/10 00:43:38;;;;;;;6.10;5.03;;;;;;;3.86;82.10;99516.72;5091906;28;20257;-75
2021/12/10 00:46:05;;;;;;;5.10;4.70;;;;;;;3.88;82.35;99503.81;5091497;28;20219;-75
2021/12/10 00:48:32;;;;;;;5.67;5.17;;;;;;;3.84;82.11;99502.13;5097750;28;20192;-75
2021/12/10 00:51:01;;;;;;;5.50;4.97;;;;;;;3.85;81.83;99502.13;5094118;28;20634;-75
2021/12/10 00:53:27;;;;;;;5.17;4.67;;;;;;;3.86;81.34;99509.00;5096491;28;20241;-75
2021/12/10 00:55:54;;;;;;;5.53;4.83;;;;;;;3.89;81.64;99514.16;5102754;28;20254;-75
2021/12/10 00:58:22;;;;;;;5.13;4.63;;;;;;;3.84;81.20;99513.31;5091706;28;20196;-76
2021/12/10 01:00:52;;;;;;;5.53;4.97;;;;;;;3.70;80.69;99535.78;5099756;28;20200;-75
2021/12/10 01:03:22;;;;;;;6.33;4.97;;;;;;;3.83;81.13;99526.25;5091424;28;20246;-75
2021/12/10 01:05:51;;;;;;;6.33;4.70;;;;;;;3.85;81.21;99520.19;5098820;28;20616;-74
2021/12/10 01:08:18;;;;;;;5.50;5.00;;;;;;;3.86;81.30;99521.91;5111130;28;20200;-75
2021/12/10 01:10:48;;;;;;;5.10;4.70;;;;;;;3.90;81.33;99500.34;5110729;28;20204;-75
2021/12/10 01:13:18;;;;;;;5.40;4.63;;;;;;;3.88;81.44;99498.66;5108103;28;20203;-75
2021/12/10 01:16:06;;;;;;;4.90;4.50;;;;;;;3.88;81.67;99476.28;5098356;28;20210;-75
2021/12/10 01:24:18;;;;;;;4.37;3.97;;;;;;;3.92;81.71;99464.22;5101214;28;20215;-75
2021/12/10 01:26:56;;;;;;;5.37;4.20;;;;;;;3.93;82.08;99446.13;5097394;28;20231;-75
2021/12/10 01:29:28;;;;;;;5.37;4.70;;;;;;;3.96;81.69;99448.69;5099498;28;20200;-74
2021/12/10 01:31:55;;;;;;;5.70;4.17;;;;;;;3.91;81.32;99468.53;5106575;28;20712;-75
2021/12/10 01:34:24;;;;;;;4.70;4.30;;;;;;;3.93;81.08;99466.78;5091803;28;20673;-75
2021/12/10 01:36:51;;;;;;;4.80;3.90;;;;;;;3.91;81.48;99455.63;5106277;28;20274;-74
2021/12/10 01:39:22;;;;;;;4.93;4.43;;;;;;;3.94;81.50;99452.13;5103207;28;20195;-75
2021/12/10 01:41:57;;;;;;;5.53;4.63;;;;;;;3.91;81.71;99442.72;5103320;28;20256;-74
2021/12/10 01:44:30;;;;;;;4.77;4.27;;;;;;;3.88;82.20;99439.28;5107681;28;20630;-75
2021/12/10 01:46:59;;;;;;;5.37;4.87;;;;;;;3.82;82.54;99414.38;5102187;28;20225;-75
2021/12/10 01:49:28;;;;;;;4.93;4.53;;;;;;;3.80;82.41;99410.94;5094710;28;20203;-74
2021/12/10 01:51:55;;;;;;;4.80;4.30;;;;;;;3.81;82.59;99401.50;5102530;28;20272;-75
2021/12/10 01:54:26;;;;;;;4.93;4.50;;;;;;;3.75;82.71;99385.19;5108610;28;20206;-75
2021/12/10 01:56:56;;;;;;;4.53;4.13;;;;;;;3.81;82.80;99393.75;5097528;28;20230;-75
2021/12/10 01:59:25;;;;;;;4.60;4.00;;;;;;;3.74;82.78;99378.31;5108098;28;20710;-75
2021/12/10 02:01:54;;;;;;;5.43;4.73;;;;;;;3.70;82.61;99370.59;5091184;28;20238;-75
2021/12/10 02:04:26;;;;;;;6.13;4.43;;;;;;;3.70;83.33;99368.03;5092621;28;20202;-75
2021/12/10 02:06:54;;;;;;;4.77;4.37;;;;;;;3.70;82.96;99355.13;5104738;28;20226;-75
2021/12/10 02:09:23;;;;;;;5.60;5.10;;;;;;;3.70;82.58;99368.03;5109524;28;20707;-75
2021/12/10 02:11:50;;;;;;;5.23;4.73;;;;;;;3.66;82.83;99381.81;5104726;27;20232;-74
2021/12/10 02:14:17;;;;;;;5.07;4.60;;;;;;;3.67;82.83;99362.91;5102255;28;20556;-75
2021/12/10 02:16:44;;;;;;;4.73;4.30;;;;;;;3.71;82.96;99360.28;5094765;28;20628;-75
2021/12/10 02:19:12;;;;;;;4.73;4.10;;;;;;;3.71;82.55;99362.00;5102184;28;20202;-75
2021/12/10 02:21:40;;;;;;;5.40;4.90;;;;;;;3.71;82.23;99369.75;5102966;28;20201;-75
2021/12/10 02:24:09;;;;;;;6.67;5.23;;;;;;;3.75;82.16;99374.03;5108671;28;20587;-75
2021/12/10 02:26:40;;;;;;;5.70;5.20;;;;;;;3.78;82.21;99361.91;5113978;28;20218;-75
2021/12/10 02:29:08;;;;;;;5.63;5.10;;;;;;;3.70;81.85;99365.44;5106116;28;20630;-76
2021/12/10 02:31:35;;;;;;;5.73;5.17;;;;;;;3.69;82.15;99358.59;5098557;28;20721;-77
2021/12/10 02:34:02;;;;;;;5.93;5.43;;;;;;;3.71;82.03;99362.84;5107062;28;20196;-77
2021/12/10 02:36:30;;;;;;;4.57;4.17;;;;;;;3.61;82.52;99358.66;5113945;28;20216;-75
2021/12/10 02:38:59;;;;;;;5.60;5.10;;;;;;;3.67;82.08;99360.31;5100934;28;20216;-77
2021/12/10 02:41:28;;;;;;;5.47;4.97;;;;;;;3.66;82.61;99354.28;5113312;28;20207;-77
2021/12/10 02:43:56;;;;;;;8.03;5.50;;;;;;;3.66;82.31;99349.13;5095193;28;20679;-77
2021/12/10 02:46:22;;;;;;;6.07;5.47;;;;;;;3.65;82.12;99343.97;5099719;28;20644;-77
2021/12/10 02:48:49;;;;;;;6.70;5.67;;;;;;;3.64;81.86;99356.03;5105240;28;20193;-77
2021/12/10 02:51:17;;;;;;;5.53;5.03;;;;;;;3.56;82.60;99340.59;5110356;28;20197;-77
2021/12/10 02:53:45;;;;;;;6.10;5.50;;;;;;;3.58;82.48;99325.97;5101240;28;20258;-77
2021/12/10 02:56:17;;;;;;;6.20;5.70;;;;;;;3.59;82.31;99337.16;5104938;28;20227;-76
2021/12/10 02:58:46;;;;;;;6.47;5.60;;;;;;;3.58;82.75;99318.22;5098651;28;20196;-75
2021/12/10 03:01:16;;;;;;;6.67;6.10;;;;;;;3.62;82.59;99310.47;5093542;28;20253;-75
2021/12/10 03:03:43;;;;;;;8.37;5.93;;;;;;;3.71;82.92;99305.22;5093249;28;20258;-75
2021/12/10 03:06:11;;;;;;;5.87;5.40;;;;;;;3.76;82.75;99311.19;5101841;28;20215;-76
2021/12/10 03:08:40;;;;;;;6.27;5.67;;;;;;;3.78;82.66;99310.28;5097994;28;20257;-76
2021/12/10 03:11:07;;;;;;;6.53;5.93;;;;;;;3.81;82.68;99308.59;5100331;28;20195;-75
2021/12/10 03:13:35;;;;;;;6.30;5.70;;;;;;;3.79;82.83;99300.84;5099972;22;20587;-78
2021/12/10 03:16:02;;;;;;;6.43;5.83;;;;;;;3.84;82.40;99305.97;5026190;28;20266;-79
2021/12/10 03:18:28;;;;;;;6.57;5.97;;;;;;;3.83;82.89;99307.69;5020915;28;20205;-78
2021/12/10 03:20:55;;;;;;;6.50;5.90;;;;;;;3.83;82.92;99299.09;5033462;28;20269;-79
2021/12/10 03:23:21;;;;;;;6.73;6.13;;;;;;;3.85;82.93;99299.94;5030382;28;20221;-78
2021/12/10 03:25:48;;;;;;;5.77;5.27;;;;;;;3.86;82.64;99301.63;5035940;28;20681;-79
2021/12/10 03:28:14;;;;;;;6.67;6.07;;;;;;;3.87;82.35;99311.94;5021682;28;20207;-78
2021/12/10 03:30:47;;;;;;;8.23;6.40;;;;;;;3.85;82.49;99305.09;5022097;28;20823;-78
2021/12/10 03:33:14;;;;;;;10.80;6.53;;;;;;;3.84;82.39;99296.47;5027234;28;20286;-77
2021/12/10 03:35:44;;;;;;;8.83;6.67;;;;;;;3.84;82.83;99288.72;5031972;28;20245;-78
2021/12/10 03:38:14;;;;;;;8.53;6.67;;;;;;;3.85;83.53;99272.41;5034182;28;20250;-78
2021/12/10 03:40:41;;;;;;;6.53;5.93;;;;;;;3.83;83.31;99270.72;5031573;28;20199;-78
2021/12/10 03:43:08;;;;;;;7.40;6.00;;;;;;;3.85;83.33;99287.88;5017040;28;20794;-78
2021/12/10 03:45:39;;;;;;;7.03;6.40;;;;;;;3.81;83.18;99282.78;5025947;28;20201;-77
2021/12/10 03:48:11;;;;;;;6.43;5.83;;;;;;;3.82;82.96;99277.56;5030055;28;20653;-78
2021/12/10 03:50:38;;;;;;;6.33;5.83;;;;;;;3.87;82.33;99293.88;5013335;28;20737;-77
2021/12/10 03:53:05;;;;;;;6.67;6.00;;;;;;;3.86;82.96;99283.56;5021266;28;20227;-78
2021/12/10 03:55:33;;;;;;;7.00;6.40;;;;;;;3.84;82.92;99275.81;5013350;28;20210;-77
2021/12/10 03:58:00;;;;;;;6.53;5.93;;;;;;;3.83;82.64;99287.03;5030022;28;20249;-78
2021/12/10 04:00:30;;;;;;;6.07;5.43;;;;;;;3.82;83.03;99266.41;5024327;28;20192;-78
2021/12/10 04:02:57;;;;;;;7.73;6.67;;;;;;;3.85;82.62;99274.13;5016152;28;20203;-78
2021/12/10 04:05:25;;;;;;;7.20;6.50;;;;;;;3.84;82.23;99283.56;5016537;28;20261;-78
2021/12/10 04:07:52;;;;;;;7.17;6.20;;;;;;;3.85;82.58;99277.56;5017889;28;20230;-77
2021/12/10 04:10:20;;;;;;;6.73;6.03;;;;;;;3.86;82.28;99284.41;5019362;28;20718;-78
2021/12/10 04:12:47;;;;;;;8.13;6.77;;;;;;;3.88;81.90;99287.84;5018279;28;20723;-78
2021/12/10 04:15:18;;;;;;;7.30;6.37;;;;;;;3.81;81.84;99280.19;5023539;28;20212;-78
2021/12/10 04:17:44;;;;;;;6.50;5.90;;;;;;;3.84;82.09;99283.56;5024741;28;20202;-78
2021/12/10 04:20:12;;;;;;;7.00;6.30;;;;;;;3.87;81.98;99285.28;5016807;28;20237;-77
2021/12/10 04:22:42;;;;;;;6.73;6.20;;;;;;;3.85;82.03;99281.88;5028956;28;20245;-78
2021/12/10 04:25:09;;;;;;;6.17;5.40;;;;;;;3.82;82.39;99264.66;5027617;28;20231;-78
2021/12/10 04:27:36;;;;;;;7.67;5.90;;;;;;;3.86;82.59;99253.44;5023804;28;20205;-78
2021/12/10 04:30:06;;;;;;;6.00;5.40;;;;;;;3.88;82.50;99254.28;5026516;28;20231;-78
2021/12/10 04:32:32;;;;;;;6.60;6.00;;;;;;;3.90;82.17;99262.84;5029457;28;20720;-78
2021/12/10 04:34:59;;;;;;;5.80;5.40;;;;;;;3.85;82.06;99262.06;5027850;28;20225;-78
2021/12/10 04:37:25;;;;;;;7.20;6.50;;;;;;;3.88;82.09;99266.34;5019662;28;20199;-78
2021/12/10 04:39:53;;;;;;;6.50;5.90;;;;;;;3.88;81.96;99266.34;5019124;28;20264;-78
2021/12/10 04:42:23;;;;;;;7.90;5.73;;;;;;;3.88;82.49;99258.59;5030850;28;20205;-78
2021/12/10 04:44:53;;;;;;;7.73;6.73;;;;;;;3.90;82.34;99260.28;5031102;28;20230;-78
2021/12/10 04:47:19;;;;;;;6.87;5.90;;;;;;;3.88;81.93;99264.59;5025994;28;20235;-78
2021/12/10 04:49:46;;;;;;;7.43;5.90;;;;;;;3.90;81.82;99260.28;5031904;28;20202;-78
2021/12/10 04:52:12;;;;;;;7.80;6.27;;;;;;;3.88;81.85;99269.75;5015942;28;20228;-78
2021/12/10 04:54:39;;;;;;;6.60;5.83;;;;;;;3.92;81.52;99266.28;5031719;28;20716;-78
2021/12/10 04:57:07;;;;;;;7.00;5.57;;;;;;;3.98;81.77;99278.25;5015519;28;20255;-78
2021/12/10 04:59:36;;;;;;;6.83;5.80;;;;;;;3.95;81.30;99275.72;5025962;28;20258;-78
2021/12/10 05:02:06;;;;;;;6.40;5.63;;;;;;;3.93;81.53;99275.75;5012355;28;20249;-79
2021/12/10 05:04:32;;;;;;;6.43;5.83;;;;;;;3.91;81.53;99274.06;5013100;28;20349;-79
2021/12/10 05:07:00;;;;;;;6.70;6.00;;;;;;;3.95;81.48;99262.81;5020033;28;20209;-78
2021/12/10 05:09:27;;;;;;;6.10;5.53;;;;;;;3.95;81.24;99262.81;5018936;28;20249;-77
2021/12/10 05:11:57;;;;;;;6.70;5.07;;;;;;;3.92;81.68;99271.44;5018288;28;20209;-78
2021/12/10 05:14:25;;;;;;;6.43;5.83;;;;;;;3.90;81.63;99262.00;5020577;28;20231;-77
2021/12/10 05:16:53;;;;;;;7.17;5.93;;;;;;;3.92;81.61;99255.09;5018915;28;20199;-78
2021/12/10 05:19:23;;;;;;;6.93;6.20;;;;;;;3.97;81.47;99261.09;5031251;28;20208;-78
2021/12/10 05:21:50;;;;;;;6.13;5.53;;;;;;;3.97;81.38;99245.59;5025804;28;20248;-78
2021/12/10 05:24:18;;;;;;;6.30;5.47;;;;;;;3.97;81.19;99251.59;5020833;28;20228;-78
2021/12/10 05:26:45;;;;;;;6.53;5.90;;;;;;;4.00;81.36;99248.13;5031826;28;20201;-78
2021/12/10 05:29:12;;;;;;;5.80;5.30;;;;;;;3.93;81.83;99228.44;5030808;28;20619;-77
2021/12/10 05:31:43;;;;;;;7.20;5.60;;;;;;;3.94;82.56;99212.06;5015694;28;20198;-76
2021/12/10 05:34:10;;;;;;;6.83;5.57;;;;;;;3.95;81.67;99217.19;5031704;28;20320;-78
2021/12/10 05:36:37;;;;;;;5.87;5.33;;;;;;;3.99;81.74;99215.44;5031877;28;20253;-78
2021/12/10 05:39:05;;;;;;;6.60;6.00;;;;;;;3.97;81.89;99212.88;5019880;28;20254;-77
2021/12/10 05:41:31;;;;;;;6.13;5.53;;;;;;;4.00;81.73;99214.56;5027763;28;20255;-77
2021/12/10 05:43:58;;;;;;;7.83;6.10;;;;;;;4.00;81.47;99217.13;5020675;28;20276;-78
2021/12/10 05:46:24;;;;;;;6.43;5.90;;;;;;;3.97;81.89;99212.88;5031275;28;20208;-78
2021/12/10 05:48:52;;;;;;;6.37;5.77;;;;;;;4.00;81.78;99211.13;5020233;28;20687;-78
2021/12/10 05:51:20;;;;;;;6.87;6.23;;;;;;;3.96;81.83;99200.84;5028054;28;20204;-78
2021/12/10 05:53:46;;;;;;;6.30;5.70;;;;;;;4.00;81.82;99204.22;5023203;28;20225;-77
2021/12/10 05:56:13;;;;;;;6.83;6.17;;;;;;;4.00;81.31;99209.38;5031119;28;20199;-78
2021/12/10 05:58:39;;;;;;;6.27;5.73;;;;;;;3.98;81.54;99213.72;5018568;28;20201;-78
2021/12/10 06:01:09;;;;;;;6.23;5.73;;;;;;;4.01;81.82;99197.34;5022608;28;20211;-77
2021/12/10 06:03:39;;;;;;;7.90;5.80;;;;;;;4.00;81.79;99198.22;5031244;28;20209;-79
2021/12/10 06:06:08;;;;;;;5.67;5.17;;;;;;;4.03;81.21;99196.47;5024787;28;20201;-78
2021/12/10 06:08:36;;;;;;;6.60;5.97;;;;;;;4.03;81.37;99201.63;5029785;28;20203;-80
2021/12/10 06:11:03;;;;;;;6.57;5.97;;;;;;;4.05;81.17;99211.94;5029513;28;20216;-78
2021/12/10 06:13:30;;;;;;;6.07;5.57;;;;;;;4.02;81.23;99201.63;5026519;28;20230;-78
2021/12/10 06:15:56;;;;;;;6.03;5.53;;;;;;;4.03;82.07;99191.28;5032060;28;20198;-79
2021/12/10 06:18:23;;;;;;;6.33;5.83;;;;;;;4.07;81.77;99181.78;5024826;28;20205;-78
2021/12/10 06:20:52;;;;;;;6.30;5.70;;;;;;;4.02;81.45;99179.25;5029807;28;20263;-79
2021/12/10 06:23:21;;;;;;;6.00;5.50;;;;;;;4.02;82.02;99174.06;5033744;28;20716;-77
2021/12/10 06:25:51;;;;;;;6.30;5.70;;;;;;;4.02;81.34;99178.41;5038383;28;20216;-79
2021/12/10 06:28:18;;;;;;;6.50;5.57;;;;;;;4.05;81.24;99188.69;5037093;28;20245;-78
2021/12/10 06:30:47;;;;;;;6.67;6.07;;;;;;;4.08;81.48;99178.31;5022393;28;20675;-78
2021/12/10 06:33:16;;;;;;;5.87;5.37;;;;;;;4.04;81.72;99180.06;5025451;28;20586;-79
2021/12/10 06:35:46;;;;;;;6.13;5.53;;;;;;;3.98;82.10;99157.81;5026301;28;20198;-78
2021/12/10 06:38:13;;;;;;;6.53;5.93;;;;;;;4.04;81.97;99166.31;5026095;28;20668;-79
2021/12/10 06:40:43;;;;;;;6.07;5.50;;;;;;;4.04;81.36;99177.50;5027117;28;20200;-78
2021/12/10 06:43:10;;;;;;;7.87;5.77;;;;;;;4.01;81.92;99180.13;5023134;28;20217;-77
2021/12/10 06:45:38;;;;;;;6.93;5.83;;;;;;;4.02;81.75;99165.50;5029016;28;20625;-78
2021/12/10 06:48:06;;;;;;;6.50;5.83;;;;;;;4.03;82.10;99164.63;5027645;28;20248;-79
2021/12/10 06:50:35;;;;;;;6.23;5.50;;;;;;;4.02;82.55;99144.84;5025564;28;20210;-79
2021/12/10 06:53:02;;;;;;;6.23;5.63;;;;;;;4.06;82.57;99147.34;5024082;28;20225;-77
2021/12/10 06:55:30;;;;;;;6.27;5.40;;;;;;;4.09;82.65;99147.31;5023502;28;20680;-78
2021/12/10 06:57:58;;;;;;;6.17;5.67;;;;;;;4.10;82.27;99150.75;5023291;28;20205;-77
2021/12/10 07:00:28;;;;;;;6.83;5.37;;;;;;;4.08;82.57;99144.75;5021264;28;20208;-77
2021/12/10 07:02:54;;;;;;;6.47;5.90;;;;;;;4.11;82.37;99144.72;5025850;28;20199;-79
2021/12/10 07:05:21;;;;;;;7.90;6.40;;;;;;;4.09;81.82;99157.66;5028099;28;20205;-78
2021/12/10 07:07:47;;;;;;;6.13;5.40;;;;;;;4.07;81.96;99159.41;5026949;28;20208;-79
2021/12/10 07:10:16;;;;;;;6.57;5.97;;;;;;;4.07;82.51;99153.38;5027604;28;20201;-79
2021/12/10 07:12:44;;;;;;;6.00;5.43;;;;;;;4.08;81.95;99149.91;5025244;28;20201;-78
2021/12/10 07:15:15;;;;;;;8.40;5.93;;;;;;;4.09;81.14;99173.13;5024512;28;20217;-79
2021/12/10 07:17:43;;;;;;;6.13;5.63;;;;;;;4.08;81.09;99189.50;5026782;28;20248;-79
2021/12/10 07:20:12;;;;;;;6.97;6.37;;;;;;;4.06;81.16;99193.81;5028315;28;20200;-79
2021/12/10 07:22:39;;;;;;;6.67;6.07;;;;;;;4.04;81.23;99181.81;5024988;28;20735;-79
2021/12/10 07:25:07;;;;;;;6.73;6.07;;;;;;;4.01;81.23;99171.53;5026756;28;20228;-79
2021/12/10 07:27:33;;;;;;;6.27;5.67;;;;;;;4.00;81.63;99169.81;5025017;28;20662;-79
2021/12/10 07:30:00;;;;;;;5.53;5.07;;;;;;;4.03;81.90;99156.88;5024308;28;20260;-78
2021/12/10 07:32:27;;;;;;;6.37;5.47;;;;;;;4.05;81.34;99165.47;5023346;28;20212;-78
2021/12/10 07:34:54;;;;;;;7.60;6.43;;;;;;;4.00;81.54;99152.59;5022413;28;20260;-80
2021/12/10 07:37:21;;;;;;;7.10;6.40;;;;;;;4.05;81.55;99152.56;5022218;28;20246;-79
2021/12/10 07:39:48;;;;;;;9.73;6.50;;;;;;;4.10;80.52;99176.56;5028142;28;20209;-78
2021/12/10 07:42:14;;;;;;;7.57;6.60;;;;;;;4.09;80.49;99186.06;5025487;28;20200;-78
2021/12/10 07:44:41;;;;;;;5.97;5.47;;;;;;;4.10;80.47;99184.31;5024424;28;20268;-78
2021/12/10 07:47:12;;;;;;;6.57;5.97;;;;;;;4.03;80.67;99168.06;5023856;28;20201;-78
2021/12/10 07:49:40;;;;;;;6.43;5.80;;;;;;;4.11;80.85;99167.97;5026209;28;20238;-78
2021/12/10 07:52:15;;;;;;;5.70;5.20;;;;;;;4.14;80.71;99163.63;5027336;28;20199;-78
2021/12/10 07:54:42;;;;;;;7.77;7.17;;;;;;;4.26;80.13;99166.88;5020602;28;20472;-79
2021/12/10 07:57:08;;;;;;;5.87;5.30;;;;;;;4.33;79.54;99189.19;5021322;28;20231;-79
2021/12/10 07:59:35;;;;;;;5.73;5.23;;;;;;;4.33;79.18;99208.09;5023843;28;20201;-79
2021/12/10 08:02:02;;;;;;;5.97;5.37;;;;;;;4.27;79.53;99208.19;5024963;28;20212;-79
2021/12/10 08:04:28;;;;;;;6.30;5.70;;;;;;;4.29;79.18;99206.44;5021936;28;20235;-79
2021/12/10 08:06:56;;;;;;;7.07;5.67;;;;;;;4.26;79.79;99196.16;5020576;28;20210;-79
2021/12/10 08:09:22;;;;;;;7.10;5.60;;;;;;;4.31;80.29;99163.38;5022411;28;20205;-78
2021/12/10 08:11:49;;;;;;;6.93;5.77;;;;;;;4.32;79.83;99170.25;5022455;28;20695;-78
2021/12/10 08:14:15;;;;;;;6.23;5.63;;;;;;;4.37;79.11;99188.25;5022578;28;20226;-78
2021/12/10 08:16:42;;;;;;;6.57;5.80;;;;;;;4.37;79.01;99204.59;5021770;28;20201;-78
2021/12/10 08:19:10;;;;;;;6.57;5.50;;;;;;;4.34;78.66;99196.91;5023381;28;20617;-78
2021/12/10 08:21:36;;;;;;;17.30;6.43;;;;;;;4.38;79.02;99197.72;5022299;28;20204;-78
2021/12/10 08:24:05;;;;;;;10.20;6.37;;;;;;;4.31;80.13;99170.28;5020860;28;20271;-78
2021/12/10 08:26:31;;;;;;;6.17;5.60;;;;;;;4.36;81.01;99142.63;5021977;28;20227;-78
2021/12/10 08:28:58;;;;;;;9.27;6.27;;;;;;;4.36;80.27;99146.09;5020286;28;20211;-78
2021/12/10 08:31:24;;;;;;;6.97;5.53;;;;;;;4.43;79.56;99161.50;5022408;28;20211;-78
2021/12/10 08:33:51;;;;;;;10.57;9.67;;;;;;;4.42;78.92;99176.16;5022341;28;20225;-78
2021/12/10 08:36:22;;;;;;;14.80;13.37;;;;;;;4.46;79.26;99169.19;5022211;28;20251;-78
2021/12/10 08:38:49;;;;;;;10.47;9.47;;;;;;;4.49;78.96;99182.91;5020835;28;20216;-79
2021/12/10 08:41:21;;;;;;;6.80;6.00;;;;;;;4.51;79.08;99180.31;5023994;28;20200;-77
2021/12/10 08:43:49;;;;;;;17.03;5.37;;;;;;;4.52;79.07;99188.06;5022570;28;20903;-77
2021/12/10 08:46:16;;;;;;;22.53;19.87;;;;;;;4.56;78.73;99191.44;5021246;28;20196;-79
2021/12/10 08:48:45;;;;;;;7.03;6.43;;;;;;;4.57;78.65;99191.41;5022233;28;20206;-78
2021/12/10 08:51:15;;;;;;;6.00;5.50;;;;;;;4.55;79.29;99184.56;5022680;28;20197;-78
2021/12/10 08:53:44;;;;;;;5.37;4.87;;;;;;;4.53;79.27;99183.72;5024902;28;20228;-78
2021/12/10 08:56:11;;;;;;;4.80;4.40;;;;;;;4.53;79.05;99179.41;5022111;28;20213;-78
2021/12/10 08:58:39;;;;;;;4.93;4.43;;;;;;;4.48;79.13;99177.75;5023486;28;20617;-78
2021/12/10 09:01:08;;;;;;;5.30;4.80;;;;;;;4.47;78.86;99176.91;5020772;28;20575;-78
2021/12/10 09:03:35;;;;;;;5.20;4.80;;;;;;;4.45;79.08;99176.09;5020319;28;20240;-78
2021/12/10 09:06:02;;;;;;;5.30;4.90;;;;;;;4.45;78.93;99177.81;5023961;28;20255;-78
2021/12/10 09:08:28;;;;;;;5.90;4.67;;;;;;;4.40;79.43;99172.72;5019452;28;20200;-79
2021/12/10 09:10:55;;;;;;;4.33;3.93;;;;;;;4.42;78.97;99181.31;5021713;28;20208;-78
2021/12/10 09:15:56;;;;;;;5.73;5.17;;;;;;;4.45;79.09;99176.09;5030663;28;20619;-78
2021/12/10 09:18:23;;;;;;;4.40;4.00;;;;;;;4.47;78.18;99192.41;5033343;28;20582;-76
2021/12/10 09:20:51;;;;;;;5.73;4.30;;;;;;;4.49;77.76;99202.75;5032924;28;20208;-78
2021/12/10 09:23:22;;;;;;;5.03;4.33;;;;;;;4.49;77.76;99210.50;5035618;28;20197;-78
2021/12/10 09:25:50;;;;;;;5.77;3.80;;;;;;;4.49;78.49;99184.66;5026058;28;20202;-78
2021/12/10 09:28:17;;;;;;;4.20;3.83;;;;;;;4.52;78.91;99175.13;5026606;28;20671;-78
2021/12/10 09:30:46;;;;;;;4.50;4.10;;;;;;;4.53;78.50;99182.00;5027060;28;20228;-78
2021/12/10 09:33:14;;;;;;;4.50;4.07;;;;;;;4.57;78.98;99170.72;5023340;28;20275;-77
2021/12/10 09:35:41;;;;;;;6.07;4.77;;;;;;;4.55;79.86;99158.72;5025100;28;20295;-78
2021/12/10 09:38:08;;;;;;;5.67;5.07;;;;;;;4.56;79.03;99153.53;5024646;28;20196;-77
2021/12/10 09:40:38;;;;;;;5.57;4.73;;;;;;;4.59;79.27;99155.22;5023252;28;20211;-78
2021/12/10 09:43:07;;;;;;;5.13;4.63;;;;;;;4.62;79.05;99159.47;5023935;28;20287;-75
2021/12/10 09:45:38;;;;;;;6.93;4.00;;;;;;;4.68;78.83;99156.81;5024583;28;20216;-76
2021/12/10 09:48:09;;;;;;;4.70;4.30;;;;;;;4.70;79.09;99163.66;5025719;28;20903;-77
2021/12/10 09:50:41;;;;;;;7.97;4.70;;;;;;;4.70;78.53;99174.00;5024246;28;20260;-76
2021/12/10 09:53:09;;;;;;;4.90;4.40;;;;;;;4.74;78.70;99182.56;5023960;28;20259;-76
2021/12/10 09:55:37;;;;;;;5.50;5.00;;;;;;;4.77;78.38;99174.75;5022302;28;20224;-75
2021/12/10 09:58:04;;;;;;;6.53;4.53;;;;;;;4.80;77.89;99186.75;5027076;28;20263;-75
2021/12/10 10:00:39;;;;;;;5.90;5.40;;;;;;;4.84;77.59;99191.03;5024924;28;20200;-75
2021/12/10 10:03:10;;;;;;;6.07;5.57;;;;;;;4.88;78.20;99184.94;5021780;28;20499;-78
2021/12/10 10:05:40;;;;;;;5.57;5.00;;;;;;;4.91;77.85;99179.69;5024238;28;20728;-78
2021/12/10 10:08:11;;;;;;;5.57;5.07;;;;;;;4.90;78.09;99193.50;5029873;28;20231;-78
2021/12/10 10:10:40;;;;;;;4.60;4.20;;;;;;;4.96;77.78;99172.72;5025757;28;20218;-76
2021/12/10 10:13:10;;;;;;;5.93;5.30;;;;;;;4.95;78.32;99161.50;5024315;28;20204;-75
2021/12/10 10:15:41;;;;;;;5.83;4.77;;;;;;;5.05;77.64;99169.13;5020880;28;20237;-76
2021/12/10 10:18:11;;;;;;;5.30;4.90;;;;;;;5.07;77.81;99167.34;5020940;28;20205;-78
2021/12/10 10:20:43;;;;;;;4.93;4.53;;;;;;;5.15;77.37;99181.00;5024866;28;20264;-78
2021/12/10 10:23:11;;;;;;;4.73;4.37;;;;;;;5.21;76.84;99196.41;5024352;28;20260;-78
2021/12/10 10:25:40;;;;;;;6.43;4.57;;;;;;;5.28;75.73;99217.88;5024207;28;20276;-78
2021/12/10 10:28:10;;;;;;;4.63;4.23;;;;;;;5.28;76.17;99223.91;5022794;28;20288;-78
2021/12/10 10:30:40;;;;;;;5.33;4.83;;;;;;;5.30;76.22;99223.88;5027508;28;20205;-78
2021/12/10 10:33:10;;;;;;;4.50;3.70;;;;;;;5.35;75.61;99241.03;5023460;28;20725;-77
2021/12/10 10:35:59;;;;;;;5.03;4.63;;;;;;;5.43;75.29;99234.88;5130657;22;20232;-77
2021/12/10 10:39:03;;;;;;;5.77;5.20;;;;;;;5.45;75.41;99241.75;5052427;28;20253;-75
2021/12/10 10:42:11;;;;;;;5.60;4.93;;;;;;;5.50;75.06;99239.91;5051346;28;20208;-74
2021/12/10 10:44:37;;;;;;;5.20;4.67;;;;;;;5.54;74.50;99251.06;5048371;28;20236;-75
2021/12/10 10:47:06;;;;;;;4.17;3.87;;;;;;;5.57;74.37;99258.78;5044202;28;20206;-75
2021/12/10 10:49:35;;;;;;;3.50;3.03;;;;;;;5.53;73.77;99298.53;5044967;28;20743;-78
2021/12/10 10:52:16;;;;;;;3.20;2.87;;;;;;;5.46;73.12;99309.88;5044207;28;20259;-77
2021/12/10 10:54:43;;;;;;;2.60;2.40;;;;;;;5.43;73.25;99297.84;5047820;28;20219;-75
2021/12/10 10:57:14;;;;;;;5.63;3.17;;;;;;;5.36;73.32;99297.06;5044163;28;20679;-77
2021/12/10 10:59:41;;;;;;;4.47;3.07;;;;;;;5.40;73.77;99291.88;5045103;28;20266;-74
2021/12/10 11:02:11;;;;;;;3.07;2.70;;;;;;;5.45;74.24;99257.28;5041764;28;20201;-75
2021/12/10 11:04:40;;;;;;;3.00;2.80;;;;;;;5.48;74.67;99262.38;5048288;28;20426;-76
2021/12/10 11:07:16;;;;;;;3.20;2.27;;;;;;;5.50;74.37;99242.50;5044230;28;20200;-75
2021/12/10 11:09:47;;;;;;;3.07;2.13;;;;;;;5.31;71.04;99349.78;5043690;28;20212;-75
2021/12/10 11:12:17;;;;;;;2.70;2.50;;;;;;;5.38;72.01;99348.81;5043587;28;20193;-77
2021/12/10 11:14:48;;;;;;;2.50;2.20;;;;;;;5.43;70.95;99352.19;5044086;28;20239;-78
2021/12/10 11:17:19;;;;;;;2.80;2.10;;;;;;;5.40;70.85;99385.03;5042021;28;20229;-77
2021/12/10 11:19:50;;;;;;;2.50;1.73;;;;;;;5.42;70.21;99393.63;5042950;28;20258;-77
2021/12/10 11:22:18;;;;;;;2.27;1.77;;;;;;;5.25;69.64;99422.31;5044988;28;20200;-77
2021/12/10 11:24:46;;;;;;;2.90;1.90;;;;;;;5.20;69.22;99437.06;5042761;28;20264;-77
2021/12/10 11:27:23;;;;;;;1.83;1.60;;;;;;;5.16;68.49;99444.84;5043858;28;20578;-76
2021/12/10 11:29:51;;;;;;;2.13;1.57;;;;;;;4.84;68.49;99483.19;5038821;28;20214;-76
2021/12/10 11:32:30;;;;;;;2.07;1.87;;;;;;;4.89;69.66;99442.59;5044572;28;20636;-76
2021/12/10 11:35:02;;;;;;;2.60;1.90;;;;;;;4.96;70.19;99419.22;5045399;28;20277;-76
2021/12/10 11:37:44;;;;;;;1.70;1.60;;;;;;;4.85;69.09;99435.75;5045359;28;20269;-76
2021/12/10 11:40:40;;;;;;;2.13;1.73;;;;;;;4.93;69.82;99416.66;5044164;28;20203;-76
2021/12/10 11:46:04;;;;;;;2.70;2.03;;;;;;;5.01;70.30;99413.16;5036522;28;20231;-77
2021/12/10 11:48:35;;;;;;;1.80;1.70;;;;;;;5.09;70.44;99388.03;5042054;28;20289;-76
2021/12/10 11:51:07;;;;;;;1.40;1.30;;;;;;;5.11;70.19;99418.19;5046138;28;20193;-76
2021/12/10 11:53:42;;;;;;;2.07;1.43;;;;;;;5.05;68.80;99451.03;5043242;28;20204;-76
2021/12/10 11:56:11;;;;;;;1.60;1.50;;;;;;;5.03;69.27;99448.44;5046806;28;20265;-76
2021/12/10 11:58:38;;;;;;;1.70;1.17;;;;;;;5.04;68.69;99463.09;5042989;28;20200;-76
2021/12/10 12:01:05;;;;;;;1.57;1.47;;;;;;;5.12;69.72;99438.00;5046452;28;20623;-76